Time;durP1;ratioP1;P1;durP2;ratioP2;P2;SDS_P1;SDS_P2;PMS_P1;PMS_P2;Temp;Humidity;BMP_temperature;BMP_pressure;BME280_temperature;BME280_humidity;BME280_pressure;Samples;Min_cycle;Max_cycle;Signal;HPM_P1;HPM_P2
2022/03/15 00:00:23;;;;;;;;;;;;;;;16.90;43.57;101996.88;4979098;28;98673;-67
2022/03/15 00:02:49;;;;;;;;;;;;;;;16.91;43.64;102001.22;4964032;28;124395;-68
2022/03/15 00:05:18;;;;;;;;;;;;;;;16.91;43.73;101995.75;4973430;28;98045;-67
2022/03/15 00:07:44;;;;;;;;;;;;;;;16.90;43.72;101982.44;4977678;28;115980;-68
2022/03/15 00:10:12;;;;;;;;;;;;;;;16.90;43.80;101988.69;4959178;28;98803;-67
2022/03/15 00:12:38;;;;;;;;;;;;;;;16.91;43.61;101987.59;4972906;28;98873;-64
2022/03/15 00:15:07;;;;;;;;;;;;;;;16.90;43.59;101988.69;4979522;28;117173;-68
2022/03/15 00:17:34;;;;;;;;;;;;;;;16.90;43.78;101983.25;4982772;28;98347;-68
2022/03/15 00:20:00;;;;;;;;;;;;;;;16.91;43.93;101978.63;4982218;28;99019;-64
2022/03/15 00:22:26;;;;;;;;;;;;;;;16.90;44.03;101985.16;4973768;28;98064;-65
2022/03/15 00:24:52;;;;;;;;;;;;;;;16.89;43.93;101978.88;4976045;28;105680;-67
2022/03/15 00:27:19;;;;;;;;;;;;;;;16.90;43.81;101985.16;4975653;28;127983;-67
2022/03/15 00:29:45;;;;;;;;;;;;;;;16.89;43.86;101986.22;4950684;28;98535;-64
2022/03/15 00:32:16;;;;;;;;;;;;;;;16.87;43.76;101981.06;4983400;28;97916;-68
2022/03/15 00:34:42;;;;;;;;;;;;;;;16.87;43.79;101975.63;4966227;28;97782;-67
2022/03/15 00:37:08;;;;;;;;;;;;;;;16.86;43.92;101982.16;4951926;28;128333;-68
2022/03/15 00:39:34;;;;;;;;;;;;;;;16.85;44.07;101985.13;4968013;28;98417;-67
2022/03/15 00:42:00;;;;;;;;;;;;;;;16.83;43.89;101987.34;4964030;28;126460;-67
2022/03/15 00:44:26;;;;;;;;;;;;;;;16.82;43.66;101988.41;4981334;28;116938;-67
2022/03/15 00:46:52;;;;;;;;;;;;;;;16.80;43.95;101987.88;4962518;28;127656;-64
2022/03/15 00:49:18;;;;;;;;;;;;;;;16.77;43.99;101991.13;4947057;28;98211;-67
2022/03/15 00:51:44;;;;;;;;;;;;;;;16.77;44.08;101993.84;4982587;28;98046;-68
2022/03/15 00:54:10;;;;;;;;;;;;;;;16.76;43.79;101995.75;4982029;28;116381;-64
2022/03/15 00:56:36;;;;;;;;;;;;;;;16.74;43.98;101992.50;4962172;28;127931;-67
2022/03/15 00:59:02;;;;;;;;;;;;;;;16.74;43.78;101984.34;4942401;28;128630;-68
2022/03/15 01:01:29;;;;;;;;;;;;;;;16.73;43.84;101984.56;4960077;28;99663;-67
2022/03/15 01:03:55;;;;;;;;;;;;;;;16.72;44.03;102000.09;4969473;28;98002;-68
2022/03/15 01:06:21;;;;;;;;;;;;;;;16.71;43.98;101997.66;4962060;28;98123;-64
2022/03/15 01:08:47;;;;;;;;;;;;;;;16.69;44.23;101995.19;4960689;28;128134;-64
2022/03/15 01:11:13;;;;;;;;;;;;;;;16.67;44.14;101983.75;4962358;28;98781;-67
2022/03/15 01:13:39;;;;;;;;;;;;;;;16.65;44.04;101981.28;4980149;28;117430;-67
2022/03/15 01:16:05;;;;;;;;;;;;;;;16.63;44.11;101979.94;4981245;28;99265;-68
2022/03/15 01:18:31;;;;;;;;;;;;;;;16.61;44.10;101982.91;4974152;28;122355;-67
2022/03/15 01:20:57;;;;;;;;;;;;;;;16.59;43.99;101979.66;4943426;28;97937;-67
2022/03/15 01:23:23;;;;;;;;;;;;;;;16.58;43.74;101982.66;4941512;28;118246;-68
2022/03/15 01:25:49;;;;;;;;;;;;;;;16.56;43.91;101985.66;4961195;28;98627;-64
2022/03/15 01:28:15;;;;;;;;;;;;;;;16.54;43.91;101979.66;4962692;28;98840;-68
2022/03/15 01:30:41;;;;;;;;;;;;;;;16.52;44.10;101981.03;4961286;28;127666;-67
2022/03/15 01:33:07;;;;;;;;;;;;;;;16.50;44.15;101978.56;4963511;28;98057;-68
2022/03/15 01:35:33;;;;;;;;;;;;;;;16.48;44.07;101975.31;4961924;28;99033;-64
2022/03/15 01:37:59;;;;;;;;;;;;;;;16.47;43.67;101976.41;4961802;28;99051;-67
2022/03/15 01:40:25;;;;;;;;;;;;;;;16.45;43.80;101978.56;4941935;28;128355;-64
2022/03/15 01:42:51;;;;;;;;;;;;;;;16.46;43.65;101985.63;4960100;28;98299;-64
2022/03/15 01:45:17;;;;;;;;;;;;;;;16.44;43.74;101985.09;4978297;28;99265;-64
2022/03/15 01:47:43;;;;;;;;;;;;;;;16.42;43.63;101992.69;4964116;28;128010;-68
2022/03/15 01:50:10;;;;;;;;;;;;;;;16.41;43.59;101997.31;4961135;28;97983;-66
2022/03/15 01:52:37;;;;;;;;;;;;;;;16.40;43.42;102001.13;4961084;28;97805;-64
2022/03/15 01:55:04;;;;;;;;;;;;;;;16.37;43.46;101985.34;4959814;28;128010;-67
2022/03/15 01:57:30;;;;;;;;;;;;;;;16.35;43.57;101998.41;4961285;28;97921;-64
2022/03/15 01:59:57;;;;;;;;;;;;;;;16.34;43.57;102010.38;4960327;28;126420;-64
2022/03/15 02:02:23;;;;;;;;;;;;;;;16.33;43.56;102013.38;4961170;28;98650;-67
2022/03/15 02:04:49;;;;;;;;;;;;;;;16.31;43.79;102015.53;4943714;28;116577;-64
2022/03/15 02:07:15;;;;;;;;;;;;;;;16.29;43.37;102013.09;4980423;28;126104;-67
2022/03/15 02:09:41;;;;;;;;;;;;;;;16.28;43.74;102005.19;4963443;28;127369;-63
2022/03/15 02:12:07;;;;;;;;;;;;;;;16.26;43.58;102008.16;4969002;28;98058;-67
2022/03/15 02:14:34;;;;;;;;;;;;;;;16.24;43.26;102009.53;4961106;28;97892;-67
2022/03/15 02:17:00;;;;;;;;;;;;;;;16.22;43.29;102011.69;4966600;28;97761;-64
2022/03/15 02:19:27;;;;;;;;;;;;;;;16.20;43.37;102003.81;4959761;28;125548;-64
2022/03/15 02:21:53;;;;;;;;;;;;;;;16.19;43.40;102021.22;4961791;28;97987;-64
2022/03/15 02:24:19;;;;;;;;;;;;;;;16.16;43.29;102017.13;4973669;28;126805;-67
2022/03/15 02:26:45;;;;;;;;;;;;;;;16.14;43.50;102019.28;4944232;28;99625;-67
2022/03/15 02:29:11;;;;;;;;;;;;;;;16.13;43.35;102014.94;4959283;28;98231;-64
2022/03/15 02:31:37;;;;;;;;;;;;;;;16.12;43.43;102017.94;4962522;28;116894;-67
2022/03/15 02:34:03;;;;;;;;;;;;;;;16.10;43.41;102022.81;4976606;28;110034;-64
2022/03/15 02:36:29;;;;;;;;;;;;;;;16.09;43.25;102015.75;4959940;28;129317;-67
2022/03/15 02:38:54;;;;;;;;;;;;;;;16.07;42.97;102024.19;4960759;28;102531;-66
2022/03/15 02:41:20;;;;;;;;;;;;;;;16.06;42.94;102014.38;4960348;28;118513;-63
2022/03/15 02:43:46;;;;;;;;;;;;;;;16.04;43.27;102022.00;4973854;28;128549;-67
2022/03/15 02:46:12;;;;;;;;;;;;;;;16.02;43.16;102016.00;4980202;28;98876;-66
2022/03/15 02:48:38;;;;;;;;;;;;;;;16.01;42.96;102022.53;4977176;28;126328;-67
2022/03/15 02:51:08;;;;;;;;;;;;;;;16.00;43.04;102022.81;4980684;28;97938;-66
2022/03/15 02:53:35;;;;;;;;;;;;;;;15.98;43.17;102024.94;4980421;28;97770;-63
2022/03/15 02:56:01;;;;;;;;;;;;;;;15.97;43.05;102035.00;4980698;28;99060;-66
2022/03/15 02:58:27;;;;;;;;;;;;;;;15.96;42.75;102030.66;4979680;28;98168;-67
2022/03/15 03:00:53;;;;;;;;;;;;;;;15.93;42.60;102031.19;4979600;28;117337;-64
2022/03/15 03:03:19;;;;;;;;;;;;;;;15.92;42.87;102029.56;4979574;28;98337;-64
2022/03/15 03:05:45;;;;;;;;;;;;;;;15.90;42.78;102032.53;4963396;28;98809;-67
2022/03/15 03:08:12;;;;;;;;;;;;;;;15.88;43.04;102032.00;4964153;28;126753;-65
2022/03/15 03:10:38;;;;;;;;;;;;;;;15.87;42.64;102033.06;4962118;28;97720;-66
2022/03/15 03:13:06;;;;;;;;;;;;;;;15.85;42.83;102027.09;4977048;28;98784;-63
2022/03/15 03:15:32;;;;;;;;;;;;;;;15.84;42.88;102017.28;4960681;28;98237;-64
2022/03/15 03:17:58;;;;;;;;;;;;;;;15.83;42.59;102028.41;4960740;28;97825;-67
2022/03/15 03:20:27;;;;;;;;;;;;;;;15.81;42.49;102027.88;4959275;28;116182;-67
2022/03/15 03:22:53;;;;;;;;;;;;;;;15.80;42.54;102026.22;4960220;28;98241;-64
2022/03/15 03:25:19;;;;;;;;;;;;;;;15.79;42.46;102025.41;4951117;28;98333;-67
2022/03/15 03:27:48;;;;;;;;;;;;;;;15.77;42.65;102029.50;4941006;28;125054;-66
2022/03/15 03:30:15;;;;;;;;;;;;;;;15.77;42.38;102034.94;4942112;28;98038;-63
2022/03/15 03:32:41;;;;;;;;;;;;;;;15.76;42.46;102036.84;4960125;28;98990;-67
2022/03/15 03:35:07;;;;;;;;;;;;;;;15.74;42.35;102047.13;4972160;28;98020;-67
2022/03/15 03:37:33;;;;;;;;;;;;;;;15.73;42.50;102050.13;4959836;28;122306;-64
2022/03/15 03:39:59;;;;;;;;;;;;;;;15.70;42.41;102044.13;4976598;28;98119;-64
2022/03/15 03:42:25;;;;;;;;;;;;;;;15.70;42.69;102048.75;4979694;28;104221;-64
2022/03/15 03:44:51;;;;;;;;;;;;;;;15.68;42.40;102045.50;4961503;28;107945;-66
2022/03/15 03:47:17;;;;;;;;;;;;;;;15.66;42.66;102053.06;4961821;28;99167;-64
2022/03/15 03:49:43;;;;;;;;;;;;;;;15.66;42.71;102050.34;4963234;28;98023;-67
2022/03/15 03:52:12;;;;;;;;;;;;;;;15.64;42.35;102049.75;4962978;28;99073;-68
2022/03/15 03:54:38;;;;;;;;;;;;;;;15.61;42.36;102047.59;4963047;28;98248;-67
2022/03/15 03:57:04;;;;;;;;;;;;;;;15.60;42.49;102051.38;4963706;28;98321;-67
2022/03/15 03:59:30;;;;;;;;;;;;;;;15.59;42.49;102045.13;4977646;28;100642;-67
2022/03/15 04:01:56;;;;;;;;;;;;;;;15.57;42.15;102044.56;4982509;28;127048;-67
2022/03/15 04:04:22;;;;;;;;;;;;;;;15.57;42.46;102043.75;4977410;28;98977;-64
2022/03/15 04:06:48;;;;;;;;;;;;;;;15.56;42.17;102040.22;4964132;28;98531;-64
2022/03/15 04:09:14;;;;;;;;;;;;;;;15.54;42.03;102033.41;4968132;28;97829;-67
2022/03/15 04:11:41;;;;;;;;;;;;;;;15.53;42.48;102042.66;4983123;28;98368;-67
2022/03/15 04:14:09;;;;;;;;;;;;;;;15.51;42.41;102042.88;4970298;28;98901;-64
2022/03/15 04:16:35;;;;;;;;;;;;;;;15.50;42.51;102043.16;4943991;28;98069;-66
2022/03/15 04:19:01;;;;;;;;;;;;;;;15.49;42.13;102042.34;4982077;28;97806;-64
2022/03/15 04:21:27;;;;;;;;;;;;;;;15.47;42.14;102045.31;4963685;28;122097;-64
2022/03/15 04:23:56;;;;;;;;;;;;;;;15.46;42.27;102045.59;4971865;28;128661;-64
2022/03/15 04:26:22;;;;;;;;;;;;;;;15.45;42.35;102052.09;4963137;28;97940;-67
2022/03/15 04:28:48;;;;;;;;;;;;;;;15.44;42.36;102056.72;4951489;28;97907;-67
2022/03/15 04:31:14;;;;;;;;;;;;;;;15.42;42.35;102048.00;4979777;28;124337;-64
2022/03/15 04:33:40;;;;;;;;;;;;;;;15.42;42.19;102058.88;4974223;28;99344;-67
2022/03/15 04:36:07;;;;;;;;;;;;;;;15.40;42.03;102047.44;4975180;28;109036;-64
2022/03/15 04:38:34;;;;;;;;;;;;;;;15.41;41.96;102045.56;4981313;28;97732;-64
2022/03/15 04:41:00;;;;;;;;;;;;;;;15.39;42.26;102045.00;4981896;28;125279;-64
2022/03/15 04:43:26;;;;;;;;;;;;;;;15.38;42.05;102046.09;4981688;28;127694;-65
2022/03/15 04:45:52;;;;;;;;;;;;;;;15.37;42.27;102044.44;4981552;28;126283;-64
2022/03/15 04:48:20;;;;;;;;;;;;;;;15.35;41.88;102044.69;4982581;28;97882;-67
2022/03/15 04:50:46;;;;;;;;;;;;;;;15.34;41.92;102043.06;4982138;28;98838;-64
2022/03/15 04:53:12;;;;;;;;;;;;;;;15.34;41.87;102031.38;4977052;28;124610;-67
2022/03/15 04:55:38;;;;;;;;;;;;;;;15.32;41.87;102034.34;4961992;28;126664;-67
2022/03/15 04:58:04;;;;;;;;;;;;;;;15.32;42.29;102036.25;4963521;28;98316;-66
2022/03/15 05:00:30;;;;;;;;;;;;;;;15.30;41.89;102030.28;4962152;28;119304;-67
2022/03/15 05:02:56;;;;;;;;;;;;;;;15.30;41.98;102041.13;4965208;28;121743;-64
2022/03/15 05:05:22;;;;;;;;;;;;;;;15.29;41.86;102031.31;4968100;28;106130;-68
2022/03/15 05:07:48;;;;;;;;;;;;;;;15.27;41.84;102022.63;4927879;28;117362;-64
2022/03/15 05:13:00;;;;;;;;;;;;;;;15.26;42.07;102029.97;4975494;28;98396;-64
2022/03/15 05:15:26;;;;;;;;;;;;;;;15.27;42.12;102017.19;4960367;28;98232;-64
2022/03/15 05:17:52;;;;;;;;;;;;;;;15.28;41.99;102018.84;4961835;28;114579;-64
2022/03/15 05:20:18;;;;;;;;;;;;;;;15.26;42.08;102021.00;4960565;28;128685;-66
2022/03/15 05:22:44;;;;;;;;;;;;;;;15.25;42.05;102009.31;4961695;28;127513;-68
2022/03/15 05:25:13;;;;;;;;;;;;;;;15.26;41.62;102016.38;4961535;28;121246;-64
2022/03/15 05:27:40;;;;;;;;;;;;;;;15.27;41.75;102017.19;4960479;28;98397;-67
2022/03/15 05:30:06;;;;;;;;;;;;;;;15.29;41.95;102025.88;4961952;28;98420;-68
2022/03/15 05:32:32;;;;;;;;;;;;;;;15.29;41.88;102026.75;4942894;28;98393;-64
2022/03/15 05:34:58;;;;;;;;;;;;;;;15.29;41.47;102017.75;4960809;28;127634;-65
2022/03/15 05:37:24;;;;;;;;;;;;;;;15.30;41.79;102014.78;4967972;28;116628;-67
2022/03/15 05:39:50;;;;;;;;;;;;;;;15.31;41.66;102021.84;4970997;28;128830;-67
2022/03/15 05:42:17;;;;;;;;;;;;;;;15.29;41.44;102010.44;4977374;28;113297;-65
2022/03/15 05:44:42;;;;;;;;;;;;;;;15.25;41.82;102012.03;4970953;28;97989;-67
2022/03/15 05:47:08;;;;;;;;;;;;;;;15.23;41.48;102006.03;4967326;28;117683;-64
2022/03/15 05:49:34;;;;;;;;;;;;;;;15.20;41.44;102012.81;4978804;28;98873;-68
2022/03/15 05:52:01;;;;;;;;;;;;;;;15.18;41.61;102011.44;4980324;28;129361;-64
2022/03/15 05:54:27;;;;;;;;;;;;;;;15.17;41.59;102007.91;4959838;28;98655;-64
2022/03/15 05:56:53;;;;;;;;;;;;;;;15.15;41.77;102007.34;4961624;28;117126;-66
2022/03/15 05:59:18;;;;;;;;;;;;;;;15.14;41.50;102004.91;4974722;28;121686;-66
2022/03/15 06:01:44;;;;;;;;;;;;;;;15.13;41.39;102012.22;4980477;28;128551;-63
2022/03/15 06:04:11;;;;;;;;;;;;;;;15.14;41.27;102007.63;4976718;28;128412;-63
2022/03/15 06:06:37;;;;;;;;;;;;;;;15.15;41.61;102012.78;4961805;28;98409;-63
2022/03/15 06:09:04;;;;;;;;;;;;;;;15.15;41.40;102007.34;4962591;28;98502;-64
2022/03/15 06:11:34;;;;;;;;;;;;;;;15.17;41.64;102012.53;4963199;28;98726;-66
2022/03/15 06:14:01;;;;;;;;;;;;;;;15.17;41.38;102012.53;4967613;28;99073;-63
2022/03/15 06:16:26;;;;;;;;;;;;;;;15.19;41.30;102008.44;4942287;28;115868;-63
2022/03/15 06:18:52;;;;;;;;;;;;;;;15.19;41.40;102019.31;4954439;28;98686;-66
2022/03/15 06:21:18;;;;;;;;;;;;;;;15.21;41.70;102016.34;4961883;28;112337;-63
2022/03/15 06:23:44;;;;;;;;;;;;;;;15.21;41.37;102022.59;4953186;28;127497;-66
2022/03/15 06:26:10;;;;;;;;;;;;;;;15.21;41.79;102013.66;4959176;28;97769;-66
2022/03/15 06:28:37;;;;;;;;;;;;;;;15.23;41.71;102011.47;4963381;28;129480;-67
2022/03/15 06:31:04;;;;;;;;;;;;;;;15.27;41.76;102006.34;4980045;28;98545;-63
2022/03/15 06:33:30;;;;;;;;;;;;;;;15.31;41.74;102012.88;4981374;28;97919;-66
2022/03/15 06:35:56;;;;;;;;;;;;;;;15.34;41.74;102010.47;4978729;28;117398;-66
2022/03/15 06:38:24;;;;;;;;;;;;;;;15.40;41.73;102016.72;4979842;28;127527;-66
2022/03/15 06:40:52;;;;;;;;;;;;;;;15.44;41.87;102018.69;4961732;28;98960;-66
2022/03/15 06:43:19;;;;;;;;;;;;;;;15.49;41.82;102019.81;4978995;28;98095;-63
2022/03/15 06:45:46;;;;;;;;;;;;;;;15.56;41.83;102017.66;4980417;28;97991;-66
2022/03/15 06:48:12;;;;;;;;;;;;;;;15.63;41.56;102018.22;4980301;28;98979;-64
2022/03/15 06:50:40;;;;;;;;;;;;;;;15.71;41.46;102018.56;4979441;28;127637;-66
2022/03/15 06:53:06;;;;;;;;;;;;;;;15.79;41.81;102019.16;4966481;28;98359;-64
2022/03/15 06:55:32;;;;;;;;;;;;;;;15.85;41.47;102018.09;4981058;28;97919;-64
2022/03/15 06:58:01;;;;;;;;;;;;;;;15.91;42.01;102015.13;4969155;28;98567;-66
2022/03/15 07:00:27;;;;;;;;;;;;;;;15.98;41.53;102017.59;4980472;28;98386;-66
2022/03/15 07:02:53;;;;;;;;;;;;;;;16.04;41.73;102011.13;4979497;28;120493;-64
2022/03/15 07:05:19;;;;;;;;;;;;;;;16.11;41.77;102014.41;4967245;28;98016;-66
2022/03/15 07:07:45;;;;;;;;;;;;;;;16.19;41.77;102015.75;4960410;28;98563;-64
2022/03/15 07:10:12;;;;;;;;;;;;;;;16.26;41.98;102004.63;4970374;28;128494;-64
2022/03/15 07:12:38;;;;;;;;;;;;;;;16.32;42.06;102009.84;4979604;28;98561;-63
2022/03/15 07:15:04;;;;;;;;;;;;;;;16.41;41.57;102010.94;4960067;28;97909;-63
2022/03/15 07:17:30;;;;;;;;;;;;;;;16.50;41.82;102003.03;4960470;28;99372;-66
2022/03/15 07:19:57;;;;;;;;;;;;;;;16.59;41.68;101996.00;4978803;28;99400;-64
2022/03/15 07:22:24;;;;;;;;;;;;;;;16.74;41.68;101999.84;4978379;28;98571;-64
2022/03/15 07:24:51;;;;;;;;;;;;;;;16.86;41.44;101989.50;4962071;28;98114;-66
2022/03/15 07:27:17;;;;;;;;;;;;;;;16.99;41.81;101996.31;4959914;28;98387;-64
2022/03/15 07:29:43;;;;;;;;;;;;;;;17.09;41.62;102002.53;4957122;28;125511;-64
2022/03/15 07:32:09;;;;;;;;;;;;;;;17.18;41.67;102003.66;4975925;27;126767;-63
2022/03/15 07:34:35;;;;;;;;;;;;;;;17.28;41.66;102002.78;4959762;28;117241;-63
2022/03/15 07:37:01;;;;;;;;;;;;;;;17.42;41.72;102008.50;4960947;28;129058;-65
2022/03/15 07:39:27;;;;;;;;;;;;;;;17.55;41.76;101996.19;4957999;28;127982;-65
2022/03/15 07:41:53;;;;;;;;;;;;;;;17.75;41.46;101990.69;4960373;28;98610;-66
2022/03/15 07:44:19;;;;;;;;;;;;;;;17.91;41.44;101983.25;4961044;28;97889;-67
2022/03/15 07:46:48;;;;;;;;;;;;;;;18.06;41.54;101982.38;4968268;28;99016;-64
2022/03/15 07:49:21;;;;;;;;;;;;;;;18.21;41.39;101987.75;4979474;28;98524;-64
2022/03/15 07:51:47;;;;;;;;;;;;;;;18.40;41.43;101994.19;4977118;28;127886;-66
2022/03/15 07:54:13;;;;;;;;;;;;;;;18.54;41.42;101990.81;4979479;28;97906;-64
2022/03/15 07:56:39;;;;;;;;;;;;;;;18.71;41.28;101985.00;4978724;28;123408;-64
2022/03/15 07:59:05;;;;;;;;;;;;;;;18.91;41.36;101993.00;4960361;28;112601;-66
2022/03/15 08:01:31;;;;;;;;;;;;;;;19.05;41.23;101999.41;4971155;28;99739;-67
2022/03/15 08:03:57;;;;;;;;;;;;;;;19.20;41.39;101997.66;4959452;28;97892;-64
2022/03/15 08:06:23;;;;;;;;;;;;;;;19.35;41.07;101984.63;4959227;28;113333;-64
2022/03/15 08:08:49;;;;;;;;;;;;;;;19.58;40.85;101991.22;4967367;28;122812;-64
2022/03/15 08:11:15;;;;;;;;;;;;;;;19.84;40.90;101983.53;4961232;28;97945;-64
2022/03/15 08:13:41;;;;;;;;;;;;;;;20.08;40.71;101982.66;4978503;28;117568;-67
2022/03/15 08:16:07;;;;;;;;;;;;;;;20.38;40.56;101986.91;4960143;28;127955;-67
2022/03/15 08:18:33;;;;;;;;;;;;;;;20.71;40.04;101985.06;4978616;28;97907;-65
2022/03/15 08:20:59;;;;;;;;;;;;;;;21.05;40.06;101981.16;4978093;28;127481;-67
2022/03/15 08:23:28;;;;;;;;;;;;;;;21.37;39.73;101974.84;4978626;28;112645;-67
2022/03/15 08:25:55;;;;;;;;;;;;;;;21.64;39.63;101982.25;4974421;28;98449;-67
2022/03/15 08:28:23;;;;;;;;;;;;;;;21.82;39.69;101972.28;4970390;28;98916;-64
2022/03/15 08:30:49;;;;;;;;;;;;;;;22.04;39.50;101975.06;4959330;28;98294;-67
2022/03/15 08:33:15;;;;;;;;;;;;;;;22.24;39.60;101976.59;4960698;28;97790;-64
2022/03/15 08:35:41;;;;;;;;;;;;;;;22.38;39.47;101962.81;4961891;28;127798;-66
2022/03/15 08:38:08;;;;;;;;;;;;;;;22.67;39.22;101962.34;4962241;28;127195;-64
2022/03/15 08:40:34;;;;;;;;;;;;;;;22.88;39.27;101962.66;4967687;28;97801;-67
2022/03/15 08:43:00;;;;;;;;;;;;;;;22.94;39.39;101961.41;4962740;28;117480;-64
2022/03/15 08:45:26;;;;;;;;;;;;;;;23.31;38.97;101966.78;4979645;28;98950;-65
2022/03/15 08:47:52;;;;;;;;;;;;;;;23.64;38.63;101958.94;4981515;28;116158;-65
2022/03/15 08:50:19;;;;;;;;;;;;;;;23.87;38.54;101959.69;4980971;28;125535;-63
2022/03/15 08:52:45;;;;;;;;;;;;;;;24.09;38.54;101953.19;4981267;28;97661;-63
2022/03/15 08:55:11;;;;;;;;;;;;;;;24.36;38.15;101944.63;4962126;28;98222;-65
2022/03/15 08:57:37;;;;;;;;;;;;;;;24.67;38.24;101946.38;4963744;28;99306;-65
2022/03/15 09:00:05;;;;;;;;;;;;;;;25.00;38.10;101946.63;4979803;28;129050;-63
2022/03/15 09:02:31;;;;;;;;;;;;;;;25.25;37.86;101944.94;4982809;28;97870;-65
2022/03/15 09:04:57;;;;;;;;;;;;;;;25.48;37.55;101950.19;4969462;28;128229;-65
2022/03/15 09:07:23;;;;;;;;;;;;;;;25.66;37.61;101955.28;4960893;28;116916;-64
2022/03/15 09:09:49;;;;;;;;;;;;;;;25.81;37.69;101942.03;4960841;28;102234;-66
2022/03/15 09:12:16;;;;;;;;;;;;;;;25.98;37.52;101935.56;4981853;28;98070;-66
2022/03/15 09:14:42;;;;;;;;;;;;;;;26.08;37.73;101935.97;4963659;28;98684;-64
2022/03/15 09:17:08;;;;;;;;;;;;;;;26.16;37.50;101940.63;4969058;28;122155;-64
2022/03/15 09:19:35;;;;;;;;;;;;;;;26.22;37.91;101940.44;4980783;28;98353;-68
2022/03/15 09:22:04;;;;;;;;;;;;;;;26.20;37.94;101933.25;4982650;28;98109;-67
2022/03/15 09:24:31;;;;;;;;;;;;;;;26.10;38.29;101927.38;4980873;28;98105;-67
2022/03/15 09:26:57;;;;;;;;;;;;;;;25.97;38.13;101926.47;4981474;28;99159;-63
2022/03/15 09:29:24;;;;;;;;;;;;;;;25.84;38.47;101927.56;4979853;28;125762;-67
2022/03/15 09:31:50;;;;;;;;;;;;;;;25.66;38.82;101927.66;4981530;28;97874;-64
2022/03/15 09:34:17;;;;;;;;;;;;;;;25.52;38.68;101923.53;4969710;28;126721;-64
2022/03/15 09:36:44;;;;;;;;;;;;;;;25.40;39.05;101930.56;4973146;28;98236;-67
2022/03/15 09:39:10;;;;;;;;;;;;;;;25.31;39.05;101923.47;4971294;28;97860;-64
2022/03/15 09:41:38;;;;;;;;;;;;;;;25.20;39.24;101918.34;4976086;28;116227;-63
2022/03/15 09:44:05;;;;;;;;;;;;;;;25.16;39.06;101919.34;4949913;28;98856;-64
2022/03/15 09:46:31;;;;;;;;;;;;;;;25.12;38.82;101921.16;4942120;28;117929;-67
2022/03/15 09:48:57;;;;;;;;;;;;;;;25.06;39.31;101917.72;4954093;28;126651;-67
2022/03/15 09:51:26;;;;;;;;;;;;;;;25.01;39.18;101908.81;4945542;28;118190;-64
2022/03/15 09:53:52;;;;;;;;;;;;;;;24.98;39.14;101902.81;4962542;28;99077;-68
2022/03/15 09:56:18;;;;;;;;;;;;;;;25.01;39.00;101908.81;4960865;28;128262;-67
2022/03/15 09:58:44;;;;;;;;;;;;;;;25.02;39.20;101907.69;4981023;28;97798;-68
2022/03/15 10:01:16;;;;;;;;;;;;;;;25.03;38.97;101904.59;4979336;28;103588;-64
2022/03/15 10:03:42;;;;;;;;;;;;;;;24.96;38.94;101899.59;4972727;28;98632;-67
2022/03/15 10:06:08;;;;;;;;;;;;;;;24.93;39.24;101897.50;4960966;28;98596;-68
2022/03/15 10:08:37;;;;;;;;;;;;;;;24.91;39.12;101901.72;4980669;28;98011;-67
2022/03/15 10:11:03;;;;;;;;;;;;;;;24.95;39.01;101891.63;4979236;28;98011;-63
2022/03/15 10:13:29;;;;;;;;;;;;;;;24.97;38.88;101889.38;4979621;28;128627;-67
2022/03/15 10:15:59;;;;;;;;;;;;;;;24.95;39.11;101880.63;4961747;28;126782;-67
2022/03/15 10:18:25;;;;;;;;;;;;;;;24.94;39.17;101879.81;4978413;28;98420;-64
2022/03/15 10:20:51;;;;;;;;;;;;;;;25.02;38.77;101878.16;4980667;28;97851;-63
2022/03/15 10:23:18;;;;;;;;;;;;;;;25.12;38.81;101872.31;4974976;28;127652;-67
2022/03/15 10:25:48;;;;;;;;;;;;;;;25.23;38.65;101864.47;4961230;28;98362;-67
2022/03/15 10:28:14;;;;;;;;;;;;;;;25.26;38.38;101869.28;4974419;28;97962;-66
2022/03/15 10:30:40;;;;;;;;;;;;;;;25.29;38.43;101859.53;4976819;28;102373;-64
2022/03/15 10:33:06;;;;;;;;;;;;;;;25.34;38.73;101853.81;4960380;28;128393;-68
2022/03/15 10:35:41;;;;;;;;;;;;;;;25.33;38.63;101855.78;4971497;28;98449;-63
2022/03/15 10:38:07;;;;;;;;;;;;;;;25.35;38.20;101855.44;4963133;28;98129;-66
2022/03/15 10:40:37;;;;;;;;;;;;;;;25.43;38.47;101846.31;4961810;28;97826;-65
2022/03/15 10:43:10;;;;;;;;;;;;;;;25.57;38.41;101844.09;4978978;28;98213;-67
2022/03/15 10:45:39;;;;;;;;;;;;;;;25.73;38.01;101844.28;4980591;28;98717;-68
2022/03/15 10:48:20;;;;;;;;;;;;;;;25.83;37.96;101843.13;4962373;28;98512;-63
2022/03/15 10:51:04;;;;;;;;;;;;;;;25.93;37.66;101837.97;4980921;28;97826;-63
2022/03/15 10:53:38;;;;;;;;;;;;;;;26.10;37.71;101833.44;4978408;28;98486;-63
2022/03/15 10:56:16;;;;;;;;;;;;;;;26.24;37.68;101824.84;4980801;28;99515;-68
2022/03/15 10:58:51;;;;;;;;;;;;;;;26.34;37.71;101827.19;4981399;28;98042;-64
2022/03/15 11:01:18;;;;;;;;;;;;;;;26.44;37.65;101816.47;4980983;28;97797;-68
2022/03/15 11:03:57;;;;;;;;;;;;;;;26.51;37.31;101817.91;4967354;28;97913;-64
2022/03/15 11:06:38;;;;;;;;;;;;;;;26.54;37.47;101814.47;4979330;28;98173;-64
2022/03/15 11:09:21;;;;;;;;;;;;;;;26.53;37.50;101813.66;4979081;28;98129;-68
2022/03/15 11:12:01;;;;;;;;;;;;;;;26.57;37.58;101806.28;4980638;28;98126;-68
2022/03/15 11:14:36;;;;;;;;;;;;;;;26.62;37.52;101802.47;4979449;28;98922;-67
2022/03/15 11:17:03;;;;;;;;;;;;;;;26.70;37.53;101798.00;4979732;28;99153;-68
2022/03/15 11:19:29;;;;;;;;;;;;;;;26.86;37.34;101802.47;4979956;28;98244;-64
2022/03/15 11:21:56;;;;;;;;;;;;;;;26.89;37.17;101796.25;4978569;28;97949;-64
2022/03/15 11:24:23;;;;;;;;;;;;;;;26.89;37.28;101793.50;4964914;28;123145;-63
2022/03/15 11:26:49;;;;;;;;;;;;;;;26.83;37.27;101783.81;4978018;28;98302;-64
2022/03/15 11:29:17;;;;;;;;;;;;;;;26.83;37.30;101783.00;4978028;28;97811;-67
2022/03/15 11:31:43;;;;;;;;;;;;;;;26.83;37.20;101778.28;4949011;28;111088;-63
2022/03/15 11:34:09;;;;;;;;;;;;;;;26.82;37.15;101776.66;4950462;28;127303;-63
2022/03/15 11:36:35;;;;;;;;;;;;;;;26.83;37.23;101769.97;4942120;28;128005;-63
2022/03/15 11:39:01;;;;;;;;;;;;;;;26.80;37.01;101770.69;4941208;28;127666;-68
2022/03/15 11:41:29;;;;;;;;;;;;;;;26.84;37.08;101756.97;4960429;28;97859;-68
2022/03/15 11:44:09;;;;;;;;;;;;;;;26.91;37.02;101754.41;4940821;28;98279;-63
2022/03/15 11:46:58;;;;;;;;;;;;;;;27.00;36.89;101755.13;4941942;28;98794;-67
2022/03/15 11:49:24;;;;;;;;;;;;;;;27.09;36.69;101741.16;4957913;28;126603;-68
2022/03/15 11:52:22;;;;;;;;;;;;;;;27.09;36.94;101739.19;4959854;28;98348;-63
2022/03/15 11:54:57;;;;;;;;;;;;;;;27.06;36.73;101725.25;4918138;28;98159;-64
2022/03/15 11:57:31;;;;;;;;;;;;;;;27.04;36.74;101719.22;4942636;28;98653;-63
2022/03/15 11:59:57;;;;;;;;;;;;;;;27.02;36.90;101718.78;4961343;28;102922;-68
2022/03/15 12:02:39;;;;;;;;;;;;;;;26.98;36.95;101704.06;4977968;28;115074;-64
2022/03/15 12:05:18;;;;;;;;;;;;;;;26.89;36.91;101709.72;4968383;28;97996;-63
2022/03/15 12:07:46;;;;;;;;;;;;;;;26.79;37.01;101705.47;4960139;28;98428;-67
2022/03/15 12:10:23;;;;;;;;;;;;;;;26.69;37.04;101697.66;4968539;28;98466;-68
2022/03/15 12:12:58;;;;;;;;;;;;;;;26.63;37.17;101701.81;4979068;28;98172;-63
2022/03/15 12:15:36;;;;;;;;;;;;;;;26.53;37.21;101689.28;4962047;28;119344;-67
2022/03/15 12:20:59;;;;;;;;;;;;;;;26.31;37.04;101673.91;4961372;28;97852;-63
2022/03/15 12:23:26;;;;;;;;;;;;;;;26.20;37.21;101681.03;4957782;28;98229;-64
2022/03/15 12:25:56;;;;;;;;;;;;;;;26.04;37.23;101667.09;4982527;28;98291;-68
2022/03/15 12:28:29;;;;;;;;;;;;;;;25.87;37.38;101668.13;4964056;28;99669;-63
2022/03/15 12:31:06;;;;;;;;;;;;;;;25.67;37.21;101667.03;4981103;28;97968;-63
2022/03/15 12:33:32;;;;;;;;;;;;;;;25.48;37.62;101649.38;4982536;28;98013;-68
2022/03/15 12:36:04;;;;;;;;;;;;;;;25.31;37.49;101634.59;4980476;28;98596;-64
2022/03/15 12:38:35;;;;;;;;;;;;;;;25.19;37.63;101629.84;4982812;28;98265;-68